Archival Weather

Sydney Intl

Sydney, Australia (YSSY)

Report from: Sunday, March 19, 2023 6:30 AM AEDT
Current time: Friday, April 19, 2024 7:18 PM AEST

Current weather – Weather history – Daily summaries
Weather forecast

Temperature22.0°C (71.6°F)
Dew point21.0°C (69.8°F)
Winds 5 kts (2.6 m/s, 5.8 mph) North-Northwest (330°)
Clouds Sky clear
Altimeter30.03 in.Hg (1017 mB)
Relative humidity94 %
Density altitude1,025 ft. (312 m)
Remarks Ceiling and visibility OK
Flight conditions Visual Meteorological Conditions
Raw dataYSSY 181930Z 33005KT CAVOK 22/21 Q1017
An error has occurred. This application may no longer respond until reloaded. Reload 🗙